< < Back
Terminal Aerodrome Forecast


Current Version              Previous Versions:   1  2  3  4  5  6  7  8  9  

Terminal Aerodrome Forecast

196
FTUS42 KGSP 182332
TAFHKY
TAF
KHKY 182332Z 1900/1924 00000KT P6SM VCSH BKN050
     FM190500 11004KT 5SM BR VCSH BKN025
     FM190700 09004KT 4SM BR VCSH OVC012
     FM190900 10007KT 3SM -SHRA BR OVC006
     FM191600 12007KT 2SM SHRA BR OVC004 PROB30 1916/1922 4SM TSRA
      OVC008CB=



Latest METAR

619
SAUS70 KWBC 182300 RRA
MTRHKY
METAR KHKY 182253Z AUTO 00000KT 10SM BKN095 OVC120 22/14 A2995 RMK AO2
SLP123 T02170144


USA.gov is the U.S. government's official web portal to all federal, state and local government web resources and services.